sensor_id;sensor_type;location;lat;lon;timestamp;P1;durP1;ratioP1;P2;durP2;ratioP2
4508;SDS011;2267;48.816;9.230;2022-07-29T00:02:14;7.30;;;6.47;;
4508;SDS011;2267;48.816;9.230;2022-07-29T00:04:41;7.03;;;6.00;;
4508;SDS011;2267;48.816;9.230;2022-07-29T00:07:08;6.38;;;5.88;;
4508;SDS011;2267;48.816;9.230;2022-07-29T00:09:38;6.50;;;5.90;;
4508;SDS011;2267;48.816;9.230;2022-07-29T00:12:17;7.03;;;6.00;;
4508;SDS011;2267;48.816;9.230;2022-07-29T00:14:54;5.55;;;5.15;;
4508;SDS011;2267;48.816;9.230;2022-07-29T00:17:22;6.50;;;5.90;;
4508;SDS011;2267;48.816;9.230;2022-07-29T00:19:49;6.35;;;5.85;;
4508;SDS011;2267;48.816;9.230;2022-07-29T00:22:16;5.90;;;5.40;;
4508;SDS011;2267;48.816;9.230;2022-07-29T00:24:43;6.80;;;6.20;;
4508;SDS011;2267;48.816;9.230;2022-07-29T00:27:10;6.00;;;5.20;;
4508;SDS011;2267;48.816;9.230;2022-07-29T00:29:36;5.90;;;5.40;;
4508;SDS011;2267;48.816;9.230;2022-07-29T00:32:03;6.80;;;5.93;;
4508;SDS011;2267;48.816;9.230;2022-07-29T00:34:30;6.40;;;5.80;;
4508;SDS011;2267;48.816;9.230;2022-07-29T00:37:16;5.90;;;5.40;;
4508;SDS011;2267;48.816;9.230;2022-07-29T00:39:43;6.70;;;6.10;;
4508;SDS011;2267;48.816;9.230;2022-07-29T00:42:10;7.07;;;6.47;;
4508;SDS011;2267;48.816;9.230;2022-07-29T00:44:40;7.57;;;6.60;;
4508;SDS011;2267;48.816;9.230;2022-07-29T00:47:08;6.60;;;6.00;;
4508;SDS011;2267;48.816;9.230;2022-07-29T00:49:36;6.13;;;5.63;;
4508;SDS011;2267;48.816;9.230;2022-07-29T00:52:05;7.07;;;6.37;;
4508;SDS011;2267;48.816;9.230;2022-07-29T00:54:33;6.70;;;6.20;;
4508;SDS011;2267;48.816;9.230;2022-07-29T00:57:04;7.15;;;6.50;;
4508;SDS011;2267;48.816;9.230;2022-07-29T00:59:33;6.03;;;5.53;;
4508;SDS011;2267;48.816;9.230;2022-07-29T01:02:01;7.30;;;6.60;;
4508;SDS011;2267;48.816;9.230;2022-07-29T01:04:29;8.40;;;6.80;;
4508;SDS011;2267;48.816;9.230;2022-07-29T01:06:57;7.10;;;6.50;;
4508;SDS011;2267;48.816;9.230;2022-07-29T01:09:24;7.00;;;6.40;;
4508;SDS011;2267;48.816;9.230;2022-07-29T01:12:15;7.18;;;6.57;;
4508;SDS011;2267;48.816;9.230;2022-07-29T01:14:45;8.03;;;7.37;;
4508;SDS011;2267;48.816;9.230;2022-07-29T01:25:37;7.30;;;6.60;;
4508;SDS011;2267;48.816;9.230;2022-07-29T01:34:27;7.05;;;6.30;;
4508;SDS011;2267;48.816;9.230;2022-07-29T01:39:33;7.20;;;6.50;;
4508;SDS011;2267;48.816;9.230;2022-07-29T01:44:33;6.97;;;6.38;;
4508;SDS011;2267;48.816;9.230;2022-07-29T01:47:10;6.38;;;5.88;;
4508;SDS011;2267;48.816;9.230;2022-07-29T01:49:43;6.93;;;6.32;;
4508;SDS011;2267;48.816;9.230;2022-07-29T01:52:20;6.60;;;6.00;;
4508;SDS011;2267;48.816;9.230;2022-07-29T01:55:02;6.78;;;6.18;;
4508;SDS011;2267;48.816;9.230;2022-07-29T01:57:35;7.00;;;6.40;;
4508;SDS011;2267;48.816;9.230;2022-07-29T02:00:04;7.40;;;6.80;;
4508;SDS011;2267;48.816;9.230;2022-07-29T02:02:32;6.68;;;6.07;;
4508;SDS011;2267;48.816;9.230;2022-07-29T02:05:01;6.57;;;6.07;;
4508;SDS011;2267;48.816;9.230;2022-07-29T02:07:29;6.90;;;6.30;;
4508;SDS011;2267;48.816;9.230;2022-07-29T02:10:00;6.70;;;6.10;;
4508;SDS011;2267;48.816;9.230;2022-07-29T02:12:29;7.07;;;6.28;;
4508;SDS011;2267;48.816;9.230;2022-07-29T02:14:59;6.78;;;6.18;;
4508;SDS011;2267;48.816;9.230;2022-07-29T02:17:27;7.15;;;6.55;;
4508;SDS011;2267;48.816;9.230;2022-07-29T02:20:08;6.53;;;5.93;;
4508;SDS011;2267;48.816;9.230;2022-07-29T02:22:37;6.70;;;6.10;;
4508;SDS011;2267;48.816;9.230;2022-07-29T02:25:06;6.70;;;6.20;;
4508;SDS011;2267;48.816;9.230;2022-07-29T02:27:39;6.38;;;5.57;;
4508;SDS011;2267;48.816;9.230;2022-07-29T02:30:07;6.27;;;5.67;;
4508;SDS011;2267;48.816;9.230;2022-07-29T02:32:36;6.13;;;5.63;;
4508;SDS011;2267;48.816;9.230;2022-07-29T02:35:06;6.13;;;5.60;;
4508;SDS011;2267;48.816;9.230;2022-07-29T02:37:35;6.10;;;5.60;;
4508;SDS011;2267;48.816;9.230;2022-07-29T02:40:03;5.70;;;5.10;;
4508;SDS011;2267;48.816;9.230;2022-07-29T02:42:32;5.78;;;5.28;;
4508;SDS011;2267;48.816;9.230;2022-07-29T02:45:02;5.68;;;5.18;;
4508;SDS011;2267;48.816;9.230;2022-07-29T02:50:17;5.20;;;4.80;;
4508;SDS011;2267;48.816;9.230;2022-07-29T02:52:52;5.30;;;4.80;;
4508;SDS011;2267;48.816;9.230;2022-07-29T02:55:29;5.07;;;4.57;;
4508;SDS011;2267;48.816;9.230;2022-07-29T03:00:37;5.50;;;5.10;;
4508;SDS011;2267;48.816;9.230;2022-07-29T03:03:07;6.20;;;5.47;;
4508;SDS011;2267;48.816;9.230;2022-07-29T03:05:37;5.20;;;4.70;;
4508;SDS011;2267;48.816;9.230;2022-07-29T03:08:04;5.85;;;5.35;;
4508;SDS011;2267;48.816;9.230;2022-07-29T03:10:32;5.50;;;5.00;;
4508;SDS011;2267;48.816;9.230;2022-07-29T03:13:00;5.20;;;4.70;;
4508;SDS011;2267;48.816;9.230;2022-07-29T03:15:28;5.68;;;4.88;;
4508;SDS011;2267;48.816;9.230;2022-07-29T03:17:55;5.88;;;5.38;;
4508;SDS011;2267;48.816;9.230;2022-07-29T03:20:22;5.70;;;5.25;;
4508;SDS011;2267;48.816;9.230;2022-07-29T03:22:49;5.50;;;5.00;;
4508;SDS011;2267;48.816;9.230;2022-07-29T03:25:17;5.33;;;4.83;;
4508;SDS011;2267;48.816;9.230;2022-07-29T03:27:45;6.10;;;5.50;;
4508;SDS011;2267;48.816;9.230;2022-07-29T03:30:13;6.10;;;5.60;;
4508;SDS011;2267;48.816;9.230;2022-07-29T03:32:47;5.77;;;5.27;;
4508;SDS011;2267;48.816;9.230;2022-07-29T03:35:17;6.00;;;5.50;;
4508;SDS011;2267;48.816;9.230;2022-07-29T03:37:47;6.20;;;5.70;;
4508;SDS011;2267;48.816;9.230;2022-07-29T03:40:15;5.80;;;5.20;;
4508;SDS011;2267;48.816;9.230;2022-07-29T03:42:45;6.97;;;6.07;;
4508;SDS011;2267;48.816;9.230;2022-07-29T03:45:15;5.67;;;5.17;;
4508;SDS011;2267;48.816;9.230;2022-07-29T03:47:52;5.72;;;5.22;;
4508;SDS011;2267;48.816;9.230;2022-07-29T03:50:26;5.85;;;5.35;;
4508;SDS011;2267;48.816;9.230;2022-07-29T03:52:55;5.20;;;4.80;;
4508;SDS011;2267;48.816;9.230;2022-07-29T03:55:22;6.68;;;5.68;;
4508;SDS011;2267;48.816;9.230;2022-07-29T03:57:49;6.90;;;5.60;;
4508;SDS011;2267;48.816;9.230;2022-07-29T04:00:16;6.20;;;5.70;;
4508;SDS011;2267;48.816;9.230;2022-07-29T04:02:44;7.30;;;6.70;;
4508;SDS011;2267;48.816;9.230;2022-07-29T04:05:15;5.53;;;5.03;;
4508;SDS011;2267;48.816;9.230;2022-07-29T04:07:44;5.50;;;5.10;;
4508;SDS011;2267;48.816;9.230;2022-07-29T04:10:11;5.97;;;5.40;;
4508;SDS011;2267;48.816;9.230;2022-07-29T04:12:39;6.70;;;6.00;;
4508;SDS011;2267;48.816;9.230;2022-07-29T04:15:06;6.03;;;5.43;;
4508;SDS011;2267;48.816;9.230;2022-07-29T04:17:33;6.30;;;5.70;;
4508;SDS011;2267;48.816;9.230;2022-07-29T04:20:00;5.93;;;5.43;;
4508;SDS011;2267;48.816;9.230;2022-07-29T04:22:27;5.82;;;5.32;;
4508;SDS011;2267;48.816;9.230;2022-07-29T04:24:54;6.32;;;5.82;;
4508;SDS011;2267;48.816;9.230;2022-07-29T04:27:28;6.25;;;5.75;;
4508;SDS011;2267;48.816;9.230;2022-07-29T04:29:55;6.97;;;6.35;;
4508;SDS011;2267;48.816;9.230;2022-07-29T04:32:23;6.00;;;5.50;;
4508;SDS011;2267;48.816;9.230;2022-07-29T04:34:50;6.93;;;6.22;;
4508;SDS011;2267;48.816;9.230;2022-07-29T04:37:17;6.53;;;5.93;;
4508;SDS011;2267;48.816;9.230;2022-07-29T04:39:44;6.30;;;5.80;;
4508;SDS011;2267;48.816;9.230;2022-07-29T04:42:11;6.07;;;5.55;;
4508;SDS011;2267;48.816;9.230;2022-07-29T04:44:38;6.10;;;5.50;;
4508;SDS011;2267;48.816;9.230;2022-07-29T04:47:08;5.85;;;5.35;;
4508;SDS011;2267;48.816;9.230;2022-07-29T04:49:37;6.40;;;5.80;;
4508;SDS011;2267;48.816;9.230;2022-07-29T04:52:05;6.87;;;6.17;;
4508;SDS011;2267;48.816;9.230;2022-07-29T04:54:32;7.00;;;6.40;;
4508;SDS011;2267;48.816;9.230;2022-07-29T04:56:59;6.40;;;5.80;;
4508;SDS011;2267;48.816;9.230;2022-07-29T04:59:26;6.00;;;5.50;;
4508;SDS011;2267;48.816;9.230;2022-07-29T05:01:53;5.70;;;5.30;;
4508;SDS011;2267;48.816;9.230;2022-07-29T05:04:20;6.50;;;5.90;;
4508;SDS011;2267;48.816;9.230;2022-07-29T05:06:47;7.00;;;6.30;;
4508;SDS011;2267;48.816;9.230;2022-07-29T05:09:14;6.43;;;5.40;;
4508;SDS011;2267;48.816;9.230;2022-07-29T05:11:40;6.00;;;5.40;;
4508;SDS011;2267;48.816;9.230;2022-07-29T05:14:07;5.20;;;4.70;;
4508;SDS011;2267;48.816;9.230;2022-07-29T05:16:34;5.80;;;5.20;;
4508;SDS011;2267;48.816;9.230;2022-07-29T05:19:01;5.80;;;5.20;;
4508;SDS011;2267;48.816;9.230;2022-07-29T05:21:28;5.78;;;4.53;;
4508;SDS011;2267;48.816;9.230;2022-07-29T05:23:55;5.80;;;4.80;;
4508;SDS011;2267;48.816;9.230;2022-07-29T05:26:21;4.90;;;4.40;;
4508;SDS011;2267;48.816;9.230;2022-07-29T05:28:48;4.60;;;4.20;;
4508;SDS011;2267;48.816;9.230;2022-07-29T05:31:15;5.28;;;4.80;;
4508;SDS011;2267;48.816;9.230;2022-07-29T05:33:42;4.68;;;4.38;;
4508;SDS011;2267;48.816;9.230;2022-07-29T05:36:09;5.30;;;4.80;;
4508;SDS011;2267;48.816;9.230;2022-07-29T05:38:36;6.53;;;5.83;;
4508;SDS011;2267;48.816;9.230;2022-07-29T05:41:03;6.53;;;5.93;;
4508;SDS011;2267;48.816;9.230;2022-07-29T05:43:31;6.40;;;5.23;;
4508;SDS011;2267;48.816;9.230;2022-07-29T05:45:58;5.45;;;5.00;;
4508;SDS011;2267;48.816;9.230;2022-07-29T05:48:26;5.93;;;5.40;;
4508;SDS011;2267;48.816;9.230;2022-07-29T05:50:53;5.27;;;4.87;;
4508;SDS011;2267;48.816;9.230;2022-07-29T05:53:20;5.45;;;4.95;;
4508;SDS011;2267;48.816;9.230;2022-07-29T05:55:48;5.60;;;5.10;;
4508;SDS011;2267;48.816;9.230;2022-07-29T05:58:15;5.60;;;4.90;;
4508;SDS011;2267;48.816;9.230;2022-07-29T06:00:42;5.53;;;4.93;;
4508;SDS011;2267;48.816;9.230;2022-07-29T06:03:09;5.20;;;4.70;;
4508;SDS011;2267;48.816;9.230;2022-07-29T06:05:36;5.67;;;4.53;;
4508;SDS011;2267;48.816;9.230;2022-07-29T06:08:03;5.10;;;4.70;;
4508;SDS011;2267;48.816;9.230;2022-07-29T06:10:36;4.70;;;4.30;;
4508;SDS011;2267;48.816;9.230;2022-07-29T06:13:04;4.82;;;4.32;;
4508;SDS011;2267;48.816;9.230;2022-07-29T06:15:30;6.00;;;4.75;;
4508;SDS011;2267;48.816;9.230;2022-07-29T06:17:58;4.70;;;4.30;;
4508;SDS011;2267;48.816;9.230;2022-07-29T06:20:27;4.93;;;4.45;;
4508;SDS011;2267;48.816;9.230;2022-07-29T06:22:58;5.40;;;4.50;;
4508;SDS011;2267;48.816;9.230;2022-07-29T06:25:26;4.50;;;4.10;;
4508;SDS011;2267;48.816;9.230;2022-07-29T06:27:57;5.50;;;3.80;;
4508;SDS011;2267;48.816;9.230;2022-07-29T06:30:24;4.88;;;4.30;;
4508;SDS011;2267;48.816;9.230;2022-07-29T06:32:51;7.13;;;4.03;;
4508;SDS011;2267;48.816;9.230;2022-07-29T06:35:17;4.40;;;4.00;;
4508;SDS011;2267;48.816;9.230;2022-07-29T06:38:04;4.35;;;3.95;;
4508;SDS011;2267;48.816;9.230;2022-07-29T06:40:51;5.50;;;4.10;;
4508;SDS011;2267;48.816;9.230;2022-07-29T06:43:35;4.60;;;3.80;;
4508;SDS011;2267;48.816;9.230;2022-07-29T06:46:17;4.20;;;3.78;;
4508;SDS011;2267;48.816;9.230;2022-07-29T06:48:46;5.10;;;4.22;;
4508;SDS011;2267;48.816;9.230;2022-07-29T06:51:14;4.10;;;3.70;;
4508;SDS011;2267;48.816;9.230;2022-07-29T06:53:41;4.38;;;3.80;;
4508;SDS011;2267;48.816;9.230;2022-07-29T06:56:27;4.57;;;4.00;;
4508;SDS011;2267;48.816;9.230;2022-07-29T06:58:55;4.80;;;4.40;;
4508;SDS011;2267;48.816;9.230;2022-07-29T07:01:21;5.00;;;3.90;;
4508;SDS011;2267;48.816;9.230;2022-07-29T07:03:48;4.82;;;4.05;;
4508;SDS011;2267;48.816;9.230;2022-07-29T07:06:15;4.55;;;4.00;;
4508;SDS011;2267;48.816;9.230;2022-07-29T07:08:42;3.90;;;3.47;;
4508;SDS011;2267;48.816;9.230;2022-07-29T07:11:09;5.97;;;3.72;;
4508;SDS011;2267;48.816;9.230;2022-07-29T07:13:36;4.10;;;3.70;;
4508;SDS011;2267;48.816;9.230;2022-07-29T07:16:03;4.07;;;3.50;;
4508;SDS011;2267;48.816;9.230;2022-07-29T07:18:30;4.20;;;3.80;;
4508;SDS011;2267;48.816;9.230;2022-07-29T07:20:58;5.22;;;3.80;;
4508;SDS011;2267;48.816;9.230;2022-07-29T07:23:24;3.85;;;3.20;;
4508;SDS011;2267;48.816;9.230;2022-07-29T07:25:51;4.30;;;3.65;;
4508;SDS011;2267;48.816;9.230;2022-07-29T07:28:19;4.47;;;3.60;;
4508;SDS011;2267;48.816;9.230;2022-07-29T07:30:50;4.23;;;3.50;;
4508;SDS011;2267;48.816;9.230;2022-07-29T07:33:18;4.60;;;3.70;;
4508;SDS011;2267;48.816;9.230;2022-07-29T07:35:45;3.80;;;3.50;;
4508;SDS011;2267;48.816;9.230;2022-07-29T07:38:12;4.50;;;4.00;;
4508;SDS011;2267;48.816;9.230;2022-07-29T07:40:39;5.00;;;3.90;;
4508;SDS011;2267;48.816;9.230;2022-07-29T07:43:06;4.28;;;3.88;;
4508;SDS011;2267;48.816;9.230;2022-07-29T07:45:33;7.00;;;4.10;;
4508;SDS011;2267;48.816;9.230;2022-07-29T07:48:00;4.67;;;3.70;;
4508;SDS011;2267;48.816;9.230;2022-07-29T07:50:27;4.00;;;3.60;;
4508;SDS011;2267;48.816;9.230;2022-07-29T07:52:55;4.10;;;3.80;;
4508;SDS011;2267;48.816;9.230;2022-07-29T07:55:25;6.38;;;4.20;;
4508;SDS011;2267;48.816;9.230;2022-07-29T07:57:53;13.73;;;5.90;;
4508;SDS011;2267;48.816;9.230;2022-07-29T08:00:21;6.70;;;4.00;;
4508;SDS011;2267;48.816;9.230;2022-07-29T08:02:49;5.25;;;4.10;;
4508;SDS011;2267;48.816;9.230;2022-07-29T08:05:16;5.40;;;4.10;;
4508;SDS011;2267;48.816;9.230;2022-07-29T08:07:45;4.10;;;3.70;;
4508;SDS011;2267;48.816;9.230;2022-07-29T08:10:16;6.00;;;4.10;;
4508;SDS011;2267;48.816;9.230;2022-07-29T08:13:06;4.97;;;3.78;;
4508;SDS011;2267;48.816;9.230;2022-07-29T08:15:34;4.10;;;3.70;;
4508;SDS011;2267;48.816;9.230;2022-07-29T08:18:01;6.53;;;3.80;;
4508;SDS011;2267;48.816;9.230;2022-07-29T08:20:34;5.35;;;4.25;;
4508;SDS011;2267;48.816;9.230;2022-07-29T08:23:02;4.20;;;3.80;;
4508;SDS011;2267;48.816;9.230;2022-07-29T08:25:30;4.25;;;3.85;;
4508;SDS011;2267;48.816;9.230;2022-07-29T08:27:59;4.07;;;3.67;;
4508;SDS011;2267;48.816;9.230;2022-07-29T08:30:26;4.90;;;3.80;;
4508;SDS011;2267;48.816;9.230;2022-07-29T08:32:53;4.82;;;4.15;;
4508;SDS011;2267;48.816;9.230;2022-07-29T08:35:22;5.63;;;3.95;;
4508;SDS011;2267;48.816;9.230;2022-07-29T08:37:49;4.20;;;3.80;;
4508;SDS011;2267;48.816;9.230;2022-07-29T08:40:17;5.03;;;4.32;;
4508;SDS011;2267;48.816;9.230;2022-07-29T08:42:55;4.55;;;4.15;;
4508;SDS011;2267;48.816;9.230;2022-07-29T08:45:22;5.55;;;4.10;;
4508;SDS011;2267;48.816;9.230;2022-07-29T08:47:50;4.53;;;4.13;;
4508;SDS011;2267;48.816;9.230;2022-07-29T08:50:18;5.47;;;4.15;;
4508;SDS011;2267;48.816;9.230;2022-07-29T08:52:45;5.33;;;4.27;;
4508;SDS011;2267;48.816;9.230;2022-07-29T08:55:14;4.18;;;3.83;;
4508;SDS011;2267;48.816;9.230;2022-07-29T08:57:46;4.60;;;4.20;;
4508;SDS011;2267;48.816;9.230;2022-07-29T09:00:19;4.60;;;4.20;;
4508;SDS011;2267;48.816;9.230;2022-07-29T09:02:50;5.20;;;4.30;;
4508;SDS011;2267;48.816;9.230;2022-07-29T09:05:22;5.50;;;5.00;;
4508;SDS011;2267;48.816;9.230;2022-07-29T09:07:50;5.95;;;5.18;;
4508;SDS011;2267;48.816;9.230;2022-07-29T09:10:18;5.30;;;4.80;;
4508;SDS011;2267;48.816;9.230;2022-07-29T09:12:45;4.95;;;4.53;;
4508;SDS011;2267;48.816;9.230;2022-07-29T09:15:12;5.22;;;4.72;;
4508;SDS011;2267;48.816;9.230;2022-07-29T09:17:43;4.88;;;4.45;;
4508;SDS011;2267;48.816;9.230;2022-07-29T09:20:11;4.85;;;4.45;;
4508;SDS011;2267;48.816;9.230;2022-07-29T09:22:39;5.80;;;4.60;;
4508;SDS011;2267;48.816;9.230;2022-07-29T09:25:07;5.13;;;4.50;;
4508;SDS011;2267;48.816;9.230;2022-07-29T09:27:37;5.63;;;4.85;;
4508;SDS011;2267;48.816;9.230;2022-07-29T09:30:06;5.10;;;4.60;;
4508;SDS011;2267;48.816;9.230;2022-07-29T09:32:56;5.32;;;4.82;;
4508;SDS011;2267;48.816;9.230;2022-07-29T09:35:24;5.88;;;4.97;;
4508;SDS011;2267;48.816;9.230;2022-07-29T09:37:52;5.40;;;4.90;;
4508;SDS011;2267;48.816;9.230;2022-07-29T09:40:21;5.22;;;4.60;;
4508;SDS011;2267;48.816;9.230;2022-07-29T09:42:53;6.20;;;5.07;;
4508;SDS011;2267;48.816;9.230;2022-07-29T09:45:33;5.80;;;4.70;;
4508;SDS011;2267;48.816;9.230;2022-07-29T09:48:16;6.97;;;5.00;;
4508;SDS011;2267;48.816;9.230;2022-07-29T09:50:45;6.00;;;4.80;;
4508;SDS011;2267;48.816;9.230;2022-07-29T09:53:37;5.93;;;4.93;;
4508;SDS011;2267;48.816;9.230;2022-07-29T09:56:04;5.50;;;5.07;;
4508;SDS011;2267;48.816;9.230;2022-07-29T09:58:31;5.70;;;5.20;;
4508;SDS011;2267;48.816;9.230;2022-07-29T10:01:01;5.90;;;4.80;;
4508;SDS011;2267;48.816;9.230;2022-07-29T10:03:29;7.10;;;5.90;;
4508;SDS011;2267;48.816;9.230;2022-07-29T10:06:06;8.60;;;5.47;;
4508;SDS011;2267;48.816;9.230;2022-07-29T10:08:35;5.97;;;5.38;;
4508;SDS011;2267;48.816;9.230;2022-07-29T10:11:35;5.78;;;5.28;;
4508;SDS011;2267;48.816;9.230;2022-07-29T10:14:15;6.72;;;4.90;;
4508;SDS011;2267;48.816;9.230;2022-07-29T10:16:42;5.45;;;4.95;;
4508;SDS011;2267;48.816;9.230;2022-07-29T10:19:10;6.00;;;5.40;;
4508;SDS011;2267;48.816;9.230;2022-07-29T10:21:37;6.20;;;5.60;;
4508;SDS011;2267;48.816;9.230;2022-07-29T10:24:05;6.20;;;5.43;;
4508;SDS011;2267;48.816;9.230;2022-07-29T10:26:40;5.68;;;5.15;;
4508;SDS011;2267;48.816;9.230;2022-07-29T10:29:08;5.43;;;5.03;;
4508;SDS011;2267;48.816;9.230;2022-07-29T10:31:39;6.20;;;5.70;;
4508;SDS011;2267;48.816;9.230;2022-07-29T10:34:18;5.78;;;5.28;;
4508;SDS011;2267;48.816;9.230;2022-07-29T10:37:03;6.00;;;5.50;;
4508;SDS011;2267;48.816;9.230;2022-07-29T10:43:09;6.77;;;6.07;;
4508;SDS011;2267;48.816;9.230;2022-07-29T10:45:46;6.63;;;5.90;;
4508;SDS011;2267;48.816;9.230;2022-07-29T10:48:17;6.40;;;5.70;;
4508;SDS011;2267;48.816;9.230;2022-07-29T10:50:55;7.90;;;6.50;;
4508;SDS011;2267;48.816;9.230;2022-07-29T10:56:31;6.43;;;5.80;;
4508;SDS011;2267;48.816;9.230;2022-07-29T11:01:50;6.97;;;6.37;;
4508;SDS011;2267;48.816;9.230;2022-07-29T11:05:32;6.68;;;5.85;;
4508;SDS011;2267;48.816;9.230;2022-07-29T11:07:27;7.63;;;6.20;;
4508;SDS011;2267;48.816;9.230;2022-07-29T11:15:13;7.35;;;6.65;;
4508;SDS011;2267;48.816;9.230;2022-07-29T11:23:25;10.00;;;8.48;;
4508;SDS011;2267;48.816;9.230;2022-07-29T11:39:43;9.20;;;8.30;;
4508;SDS011;2267;48.816;9.230;2022-07-29T11:47:52;7.95;;;7.20;;
4508;SDS011;2267;48.816;9.230;2022-07-29T11:50:32;7.55;;;6.75;;
4508;SDS011;2267;48.816;9.230;2022-07-29T11:53:02;5.70;;;5.20;;
4508;SDS011;2267;48.816;9.230;2022-07-29T11:55:37;6.88;;;4.70;;
4508;SDS011;2267;48.816;9.230;2022-07-29T11:58:25;3.97;;;3.58;;
4508;SDS011;2267;48.816;9.230;2022-07-29T12:00:54;5.07;;;4.15;;
4508;SDS011;2267;48.816;9.230;2022-07-29T12:03:24;6.07;;;4.40;;
4508;SDS011;2267;48.816;9.230;2022-07-29T12:06:02;7.05;;;4.38;;
4508;SDS011;2267;48.816;9.230;2022-07-29T12:08:41;7.20;;;4.65;;
4508;SDS011;2267;48.816;9.230;2022-07-29T12:11:16;5.90;;;4.37;;
4508;SDS011;2267;48.816;9.230;2022-07-29T12:13:46;4.90;;;3.20;;
4508;SDS011;2267;48.816;9.230;2022-07-29T12:16:14;4.65;;;3.67;;
4508;SDS011;2267;48.816;9.230;2022-07-29T12:19:00;7.80;;;3.63;;
4508;SDS011;2267;48.816;9.230;2022-07-29T12:21:33;4.22;;;3.50;;
4508;SDS011;2267;48.816;9.230;2022-07-29T12:24:21;5.50;;;3.55;;
4508;SDS011;2267;48.816;9.230;2022-07-29T12:26:58;4.07;;;3.40;;
4508;SDS011;2267;48.816;9.230;2022-07-29T12:29:27;4.30;;;3.90;;
4508;SDS011;2267;48.816;9.230;2022-07-29T12:32:00;5.37;;;3.90;;
4508;SDS011;2267;48.816;9.230;2022-07-29T12:34:30;4.20;;;3.80;;
4508;SDS011;2267;48.816;9.230;2022-07-29T12:36:57;5.70;;;3.70;;
4508;SDS011;2267;48.816;9.230;2022-07-29T12:39:24;5.03;;;4.10;;
4508;SDS011;2267;48.816;9.230;2022-07-29T12:41:54;5.90;;;4.20;;
4508;SDS011;2267;48.816;9.230;2022-07-29T12:44:49;4.50;;;3.90;;
4508;SDS011;2267;48.816;9.230;2022-07-29T12:47:16;4.63;;;3.88;;
4508;SDS011;2267;48.816;9.230;2022-07-29T12:49:45;5.90;;;3.80;;
4508;SDS011;2267;48.816;9.230;2022-07-29T12:54:55;4.38;;;3.83;;
4508;SDS011;2267;48.816;9.230;2022-07-29T12:57:22;4.53;;;4.13;;
4508;SDS011;2267;48.816;9.230;2022-07-29T13:00:06;4.68;;;4.15;;
4508;SDS011;2267;48.816;9.230;2022-07-29T13:02:36;4.85;;;4.43;;
4508;SDS011;2267;48.816;9.230;2022-07-29T13:05:04;5.63;;;4.47;;
4508;SDS011;2267;48.816;9.230;2022-07-29T13:07:32;4.97;;;4.47;;
4508;SDS011;2267;48.816;9.230;2022-07-29T13:10:21;6.07;;;4.82;;
4508;SDS011;2267;48.816;9.230;2022-07-29T13:13:06;5.65;;;4.50;;
4508;SDS011;2267;48.816;9.230;2022-07-29T13:15:36;6.57;;;5.25;;
4508;SDS011;2267;48.816;9.230;2022-07-29T13:18:04;6.10;;;5.10;;
4508;SDS011;2267;48.816;9.230;2022-07-29T13:20:51;5.18;;;4.68;;
4508;SDS011;2267;48.816;9.230;2022-07-29T13:23:17;5.45;;;4.47;;
4508;SDS011;2267;48.816;9.230;2022-07-29T13:25:44;5.78;;;5.15;;
4508;SDS011;2267;48.816;9.230;2022-07-29T13:28:11;5.78;;;4.95;;
4508;SDS011;2267;48.816;9.230;2022-07-29T13:30:41;5.57;;;5.07;;
4508;SDS011;2267;48.816;9.230;2022-07-29T13:33:10;6.00;;;5.10;;
4508;SDS011;2267;48.816;9.230;2022-07-29T13:35:37;6.20;;;5.47;;
4508;SDS011;2267;48.816;9.230;2022-07-29T13:38:05;6.90;;;5.72;;
4508;SDS011;2267;48.816;9.230;2022-07-29T13:40:32;7.78;;;6.05;;
4508;SDS011;2267;48.816;9.230;2022-07-29T13:43:01;6.50;;;5.80;;
4508;SDS011;2267;48.816;9.230;2022-07-29T13:45:29;7.57;;;5.82;;
4508;SDS011;2267;48.816;9.230;2022-07-29T13:47:56;8.45;;;5.93;;
4508;SDS011;2267;48.816;9.230;2022-07-29T13:50:22;7.00;;;6.25;;
4508;SDS011;2267;48.816;9.230;2022-07-29T13:52:49;7.38;;;6.65;;
4508;SDS011;2267;48.816;9.230;2022-07-29T13:55:17;7.80;;;7.00;;
4508;SDS011;2267;48.816;9.230;2022-07-29T13:57:44;7.55;;;6.82;;
4508;SDS011;2267;48.816;9.230;2022-07-29T14:00:12;8.18;;;7.07;;
4508;SDS011;2267;48.816;9.230;2022-07-29T14:02:39;8.10;;;6.80;;
4508;SDS011;2267;48.816;9.230;2022-07-29T14:05:06;7.60;;;6.80;;
4508;SDS011;2267;48.816;9.230;2022-07-29T14:07:36;6.80;;;6.13;;
4508;SDS011;2267;48.816;9.230;2022-07-29T14:10:05;7.00;;;6.40;;
4508;SDS011;2267;48.816;9.230;2022-07-29T14:12:33;7.22;;;6.30;;
4508;SDS011;2267;48.816;9.230;2022-07-29T14:15:00;8.25;;;6.97;;
4508;SDS011;2267;48.816;9.230;2022-07-29T14:17:27;7.20;;;6.60;;
4508;SDS011;2267;48.816;9.230;2022-07-29T14:19:53;7.55;;;6.85;;
4508;SDS011;2267;48.816;9.230;2022-07-29T14:22:20;7.30;;;6.60;;
4508;SDS011;2267;48.816;9.230;2022-07-29T14:24:50;7.80;;;7.00;;
4508;SDS011;2267;48.816;9.230;2022-07-29T14:27:17;7.50;;;6.70;;
4508;SDS011;2267;48.816;9.230;2022-07-29T14:29:44;8.43;;;7.50;;
4508;SDS011;2267;48.816;9.230;2022-07-29T14:32:11;10.13;;;8.43;;
4508;SDS011;2267;48.816;9.230;2022-07-29T14:34:38;8.10;;;7.40;;
4508;SDS011;2267;48.816;9.230;2022-07-29T14:37:06;8.85;;;8.10;;
4508;SDS011;2267;48.816;9.230;2022-07-29T14:39:33;10.00;;;8.70;;
4508;SDS011;2267;48.816;9.230;2022-07-29T14:42:07;8.65;;;7.85;;
4508;SDS011;2267;48.816;9.230;2022-07-29T14:44:36;9.30;;;8.40;;
4508;SDS011;2267;48.816;9.230;2022-07-29T14:47:03;10.60;;;9.50;;
4508;SDS011;2267;48.816;9.230;2022-07-29T14:49:33;10.15;;;9.25;;
4508;SDS011;2267;48.816;9.230;2022-07-29T14:52:02;10.20;;;9.20;;
4508;SDS011;2267;48.816;9.230;2022-07-29T14:54:29;10.38;;;9.38;;
4508;SDS011;2267;48.816;9.230;2022-07-29T14:56:56;9.63;;;8.63;;
4508;SDS011;2267;48.816;9.230;2022-07-29T14:59:24;9.02;;;8.23;;
4508;SDS011;2267;48.816;9.230;2022-07-29T15:01:51;9.20;;;8.40;;
4508;SDS011;2267;48.816;9.230;2022-07-29T15:04:18;9.60;;;8.80;;
4508;SDS011;2267;48.816;9.230;2022-07-29T15:06:45;9.18;;;8.13;;
4508;SDS011;2267;48.816;9.230;2022-07-29T15:09:12;10.40;;;9.13;;
4508;SDS011;2267;48.816;9.230;2022-07-29T15:11:39;8.95;;;8.23;;
4508;SDS011;2267;48.816;9.230;2022-07-29T15:14:06;9.27;;;8.38;;
4508;SDS011;2267;48.816;9.230;2022-07-29T15:16:35;8.68;;;7.78;;
4508;SDS011;2267;48.816;9.230;2022-07-29T15:19:03;10.07;;;8.38;;
4508;SDS011;2267;48.816;9.230;2022-07-29T15:21:30;8.52;;;7.72;;
4508;SDS011;2267;48.816;9.230;2022-07-29T15:23:57;9.95;;;8.95;;
4508;SDS011;2267;48.816;9.230;2022-07-29T15:26:27;8.80;;;8.00;;
4508;SDS011;2267;48.816;9.230;2022-07-29T15:28:54;8.80;;;8.00;;
4508;SDS011;2267;48.816;9.230;2022-07-29T15:31:29;9.10;;;8.20;;
4508;SDS011;2267;48.816;9.230;2022-07-29T15:33:55;8.57;;;7.78;;
4508;SDS011;2267;48.816;9.230;2022-07-29T15:36:27;8.15;;;7.10;;
4508;SDS011;2267;48.816;9.230;2022-07-29T15:39:14;8.18;;;7.38;;
4508;SDS011;2267;48.816;9.230;2022-07-29T15:41:41;8.00;;;7.30;;
4508;SDS011;2267;48.816;9.230;2022-07-29T15:44:08;8.60;;;7.80;;
4508;SDS011;2267;48.816;9.230;2022-07-29T15:46:35;7.80;;;7.10;;
4508;SDS011;2267;48.816;9.230;2022-07-29T15:49:21;8.03;;;7.23;;
4508;SDS011;2267;48.816;9.230;2022-07-29T15:51:48;9.33;;;7.83;;
4508;SDS011;2267;48.816;9.230;2022-07-29T15:54:15;8.50;;;7.70;;
4508;SDS011;2267;48.816;9.230;2022-07-29T15:56:42;8.63;;;7.93;;
4508;SDS011;2267;48.816;9.230;2022-07-29T15:59:09;8.80;;;8.00;;
4508;SDS011;2267;48.816;9.230;2022-07-29T16:01:47;9.00;;;8.20;;
4508;SDS011;2267;48.816;9.230;2022-07-29T16:04:14;8.75;;;7.95;;
4508;SDS011;2267;48.816;9.230;2022-07-29T16:06:42;9.48;;;7.88;;
4508;SDS011;2267;48.816;9.230;2022-07-29T16:09:10;9.40;;;8.20;;
4508;SDS011;2267;48.816;9.230;2022-07-29T16:11:37;8.05;;;7.45;;
4508;SDS011;2267;48.816;9.230;2022-07-29T16:14:04;7.90;;;7.22;;
4508;SDS011;2267;48.816;9.230;2022-07-29T16:16:34;7.72;;;7.10;;
4508;SDS011;2267;48.816;9.230;2022-07-29T16:19:01;7.40;;;6.70;;
4508;SDS011;2267;48.816;9.230;2022-07-29T16:21:28;8.68;;;7.20;;
4508;SDS011;2267;48.816;9.230;2022-07-29T16:23:58;7.20;;;6.50;;
4508;SDS011;2267;48.816;9.230;2022-07-29T16:26:26;7.68;;;6.97;;
4508;SDS011;2267;48.816;9.230;2022-07-29T16:28:54;8.02;;;7.30;;
4508;SDS011;2267;48.816;9.230;2022-07-29T16:31:21;7.57;;;6.87;;
4508;SDS011;2267;48.816;9.230;2022-07-29T16:33:49;7.35;;;6.70;;
4508;SDS011;2267;48.816;9.230;2022-07-29T16:36:21;7.57;;;6.90;;
4508;SDS011;2267;48.816;9.230;2022-07-29T16:38:48;7.50;;;6.80;;
4508;SDS011;2267;48.816;9.230;2022-07-29T16:41:15;7.10;;;6.50;;